sensor_id;sensor_type;location;lat;lon;timestamp;P1;durP1;ratioP1;P2;durP2;ratioP2
6828;SDS011;17930;48.592;8.868;2022-11-20T00:01:22;4.25;;;3.00;;
6828;SDS011;17930;48.592;8.868;2022-11-20T00:03:50;5.30;;;3.47;;
6828;SDS011;17930;48.592;8.868;2022-11-20T00:06:18;5.90;;;2.97;;
6828;SDS011;17930;48.592;8.868;2022-11-20T00:08:46;5.57;;;3.22;;
6828;SDS011;17930;48.592;8.868;2022-11-20T00:11:15;8.48;;;3.88;;
6828;SDS011;17930;48.592;8.868;2022-11-20T00:13:43;6.05;;;4.18;;
6828;SDS011;17930;48.592;8.868;2022-11-20T00:16:10;9.70;;;4.18;;
6828;SDS011;17930;48.592;8.868;2022-11-20T00:18:38;9.18;;;5.15;;
6828;SDS011;17930;48.592;8.868;2022-11-20T00:21:05;8.27;;;4.80;;
6828;SDS011;17930;48.592;8.868;2022-11-20T00:23:34;7.32;;;3.92;;
6828;SDS011;17930;48.592;8.868;2022-11-20T00:26:01;8.85;;;3.78;;
6828;SDS011;17930;48.592;8.868;2022-11-20T00:28:31;6.97;;;3.40;;
6828;SDS011;17930;48.592;8.868;2022-11-20T00:31:02;5.82;;;3.97;;
6828;SDS011;17930;48.592;8.868;2022-11-20T00:33:29;6.22;;;4.10;;
6828;SDS011;17930;48.592;8.868;2022-11-20T00:35:58;7.78;;;4.55;;
6828;SDS011;17930;48.592;8.868;2022-11-20T00:38:27;7.63;;;4.03;;
6828;SDS011;17930;48.592;8.868;2022-11-20T00:40:54;8.52;;;4.70;;
6828;SDS011;17930;48.592;8.868;2022-11-20T00:43:22;9.80;;;4.32;;
6828;SDS011;17930;48.592;8.868;2022-11-20T00:45:50;10.50;;;4.78;;
6828;SDS011;17930;48.592;8.868;2022-11-20T00:48:17;9.00;;;4.60;;
6828;SDS011;17930;48.592;8.868;2022-11-20T00:50:43;8.25;;;4.68;;
6828;SDS011;17930;48.592;8.868;2022-11-20T00:53:10;11.27;;;4.72;;
6828;SDS011;17930;48.592;8.868;2022-11-20T00:55:37;7.43;;;3.70;;
6828;SDS011;17930;48.592;8.868;2022-11-20T00:58:03;5.53;;;3.90;;
6828;SDS011;17930;48.592;8.868;2022-11-20T01:00:30;7.05;;;3.78;;
6828;SDS011;17930;48.592;8.868;2022-11-20T01:02:58;8.20;;;4.13;;
6828;SDS011;17930;48.592;8.868;2022-11-20T01:05:25;8.60;;;3.95;;
6828;SDS011;17930;48.592;8.868;2022-11-20T01:07:52;6.60;;;3.47;;
6828;SDS011;17930;48.592;8.868;2022-11-20T01:10:18;5.22;;;3.53;;
6828;SDS011;17930;48.592;8.868;2022-11-20T01:12:45;9.30;;;3.97;;
6828;SDS011;17930;48.592;8.868;2022-11-20T01:15:33;5.60;;;3.55;;
6828;SDS011;17930;48.592;8.868;2022-11-20T01:18:03;4.90;;;3.17;;
6828;SDS011;17930;48.592;8.868;2022-11-20T01:20:30;6.90;;;4.03;;
6828;SDS011;17930;48.592;8.868;2022-11-20T01:23:00;8.13;;;4.32;;
6828;SDS011;17930;48.592;8.868;2022-11-20T01:25:27;8.38;;;3.95;;
6828;SDS011;17930;48.592;8.868;2022-11-20T01:27:54;6.75;;;3.72;;
6828;SDS011;17930;48.592;8.868;2022-11-20T01:30:20;6.78;;;3.83;;
6828;SDS011;17930;48.592;8.868;2022-11-20T01:32:47;9.60;;;4.38;;
6828;SDS011;17930;48.592;8.868;2022-11-20T01:35:15;6.63;;;3.60;;
6828;SDS011;17930;48.592;8.868;2022-11-20T01:37:42;8.18;;;4.22;;
6828;SDS011;17930;48.592;8.868;2022-11-20T01:40:09;8.27;;;4.20;;
6828;SDS011;17930;48.592;8.868;2022-11-20T01:42:37;6.85;;;4.38;;
6828;SDS011;17930;48.592;8.868;2022-11-20T01:48:30;6.65;;;4.13;;
6828;SDS011;17930;48.592;8.868;2022-11-20T01:51:04;6.97;;;3.92;;
6828;SDS011;17930;48.592;8.868;2022-11-20T01:53:34;5.65;;;3.53;;
6828;SDS011;17930;48.592;8.868;2022-11-20T01:56:05;8.80;;;4.03;;
6828;SDS011;17930;48.592;8.868;2022-11-20T01:58:35;10.20;;;4.88;;
6828;SDS011;17930;48.592;8.868;2022-11-20T02:01:08;5.90;;;4.00;;
6828;SDS011;17930;48.592;8.868;2022-11-20T02:03:35;7.18;;;3.97;;
6828;SDS011;17930;48.592;8.868;2022-11-20T02:06:05;6.10;;;4.05;;
6828;SDS011;17930;48.592;8.868;2022-11-20T02:08:38;6.18;;;4.13;;
6828;SDS011;17930;48.592;8.868;2022-11-20T02:11:05;6.10;;;3.58;;
6828;SDS011;17930;48.592;8.868;2022-11-20T02:13:32;8.75;;;3.58;;
6828;SDS011;17930;48.592;8.868;2022-11-20T02:16:12;7.53;;;3.50;;
6828;SDS011;17930;48.592;8.868;2022-11-20T02:18:41;7.80;;;3.50;;
6828;SDS011;17930;48.592;8.868;2022-11-20T02:21:12;7.30;;;3.92;;
6828;SDS011;17930;48.592;8.868;2022-11-20T02:24:03;5.32;;;3.60;;
6828;SDS011;17930;48.592;8.868;2022-11-20T02:26:33;7.80;;;4.10;;
6828;SDS011;17930;48.592;8.868;2022-11-20T02:29:04;7.90;;;4.05;;
6828;SDS011;17930;48.592;8.868;2022-11-20T02:31:38;5.97;;;3.83;;
6828;SDS011;17930;48.592;8.868;2022-11-20T02:34:07;7.93;;;4.05;;
6828;SDS011;17930;48.592;8.868;2022-11-20T02:36:35;7.78;;;4.20;;
6828;SDS011;17930;48.592;8.868;2022-11-20T02:39:04;5.05;;;3.22;;
6828;SDS011;17930;48.592;8.868;2022-11-20T02:41:33;8.18;;;4.28;;
6828;SDS011;17930;48.592;8.868;2022-11-20T02:44:01;9.80;;;4.03;;
6828;SDS011;17930;48.592;8.868;2022-11-20T02:46:29;8.68;;;4.30;;
6828;SDS011;17930;48.592;8.868;2022-11-20T02:48:56;7.57;;;4.38;;
6828;SDS011;17930;48.592;8.868;2022-11-20T02:51:23;8.15;;;4.47;;
6828;SDS011;17930;48.592;8.868;2022-11-20T02:53:49;8.18;;;4.63;;
6828;SDS011;17930;48.592;8.868;2022-11-20T02:56:18;9.95;;;4.82;;
6828;SDS011;17930;48.592;8.868;2022-11-20T02:58:44;7.95;;;4.40;;
6828;SDS011;17930;48.592;8.868;2022-11-20T03:01:12;7.30;;;4.90;;
6828;SDS011;17930;48.592;8.868;2022-11-20T03:03:39;10.77;;;5.40;;
6828;SDS011;17930;48.592;8.868;2022-11-20T03:06:05;8.32;;;4.88;;
6828;SDS011;17930;48.592;8.868;2022-11-20T03:08:32;8.13;;;5.45;;
6828;SDS011;17930;48.592;8.868;2022-11-20T03:11:02;10.75;;;5.70;;
6828;SDS011;17930;48.592;8.868;2022-11-20T03:13:32;8.27;;;5.30;;
6828;SDS011;17930;48.592;8.868;2022-11-20T03:16:05;9.13;;;4.82;;
6828;SDS011;17930;48.592;8.868;2022-11-20T03:18:32;8.13;;;5.22;;
6828;SDS011;17930;48.592;8.868;2022-11-20T03:20:59;7.78;;;4.95;;
6828;SDS011;17930;48.592;8.868;2022-11-20T03:23:26;6.30;;;4.47;;
6828;SDS011;17930;48.592;8.868;2022-11-20T03:25:55;8.52;;;5.13;;
6828;SDS011;17930;48.592;8.868;2022-11-20T03:28:22;7.75;;;4.90;;
6828;SDS011;17930;48.592;8.868;2022-11-20T03:30:50;14.25;;;5.07;;
6828;SDS011;17930;48.592;8.868;2022-11-20T03:33:16;10.40;;;5.90;;
6828;SDS011;17930;48.592;8.868;2022-11-20T03:35:43;8.88;;;5.38;;
6828;SDS011;17930;48.592;8.868;2022-11-20T03:38:10;9.18;;;5.72;;
6828;SDS011;17930;48.592;8.868;2022-11-20T03:40:36;9.55;;;4.68;;
6828;SDS011;17930;48.592;8.868;2022-11-20T03:43:03;9.05;;;5.40;;
6828;SDS011;17930;48.592;8.868;2022-11-20T03:45:30;11.38;;;5.32;;
6828;SDS011;17930;48.592;8.868;2022-11-20T03:47:58;10.80;;;5.20;;
6828;SDS011;17930;48.592;8.868;2022-11-20T03:50:24;9.63;;;4.80;;
6828;SDS011;17930;48.592;8.868;2022-11-20T03:52:51;7.40;;;4.18;;
6828;SDS011;17930;48.592;8.868;2022-11-20T03:55:18;10.20;;;5.32;;
6828;SDS011;17930;48.592;8.868;2022-11-20T03:57:59;9.57;;;6.25;;
6828;SDS011;17930;48.592;8.868;2022-11-20T04:00:25;7.90;;;5.20;;
6828;SDS011;17930;48.592;8.868;2022-11-20T04:02:52;8.65;;;4.82;;
6828;SDS011;17930;48.592;8.868;2022-11-20T04:05:20;9.52;;;5.60;;
6828;SDS011;17930;48.592;8.868;2022-11-20T04:07:47;10.23;;;5.40;;
6828;SDS011;17930;48.592;8.868;2022-11-20T04:10:13;8.18;;;4.70;;
6828;SDS011;17930;48.592;8.868;2022-11-20T04:12:40;8.50;;;5.03;;
6828;SDS011;17930;48.592;8.868;2022-11-20T04:15:07;9.63;;;5.35;;
6828;SDS011;17930;48.592;8.868;2022-11-20T04:17:34;11.05;;;5.43;;
6828;SDS011;17930;48.592;8.868;2022-11-20T04:20:02;10.52;;;5.88;;
6828;SDS011;17930;48.592;8.868;2022-11-20T04:22:30;11.45;;;5.25;;
6828;SDS011;17930;48.592;8.868;2022-11-20T04:24:57;8.50;;;5.15;;
6828;SDS011;17930;48.592;8.868;2022-11-20T04:27:24;9.18;;;4.88;;
6828;SDS011;17930;48.592;8.868;2022-11-20T04:29:51;9.68;;;5.72;;
6828;SDS011;17930;48.592;8.868;2022-11-20T04:32:17;8.95;;;4.88;;
6828;SDS011;17930;48.592;8.868;2022-11-20T04:34:44;8.73;;;4.82;;
6828;SDS011;17930;48.592;8.868;2022-11-20T04:37:11;12.18;;;5.72;;
6828;SDS011;17930;48.592;8.868;2022-11-20T04:39:39;7.47;;;5.10;;
6828;SDS011;17930;48.592;8.868;2022-11-20T04:42:05;9.23;;;5.05;;
6828;SDS011;17930;48.592;8.868;2022-11-20T04:44:51;7.88;;;4.70;;
6828;SDS011;17930;48.592;8.868;2022-11-20T04:47:18;7.57;;;4.68;;
6828;SDS011;17930;48.592;8.868;2022-11-20T04:49:45;10.90;;;5.30;;
6828;SDS011;17930;48.592;8.868;2022-11-20T04:52:12;8.15;;;5.22;;
6828;SDS011;17930;48.592;8.868;2022-11-20T04:54:40;9.35;;;5.13;;
6828;SDS011;17930;48.592;8.868;2022-11-20T04:57:06;9.57;;;5.28;;
6828;SDS011;17930;48.592;8.868;2022-11-20T04:59:33;8.38;;;5.15;;
6828;SDS011;17930;48.592;8.868;2022-11-20T05:02:00;7.60;;;4.78;;
6828;SDS011;17930;48.592;8.868;2022-11-20T05:04:26;11.38;;;5.40;;
6828;SDS011;17930;48.592;8.868;2022-11-20T05:06:53;9.15;;;5.10;;
6828;SDS011;17930;48.592;8.868;2022-11-20T05:09:20;9.63;;;5.45;;
6828;SDS011;17930;48.592;8.868;2022-11-20T05:11:48;8.50;;;4.97;;
6828;SDS011;17930;48.592;8.868;2022-11-20T05:14:14;9.43;;;5.28;;
6828;SDS011;17930;48.592;8.868;2022-11-20T05:16:41;9.75;;;5.03;;
6828;SDS011;17930;48.592;8.868;2022-11-20T05:19:08;10.85;;;5.60;;
6828;SDS011;17930;48.592;8.868;2022-11-20T05:21:35;7.88;;;4.78;;
6828;SDS011;17930;48.592;8.868;2022-11-20T05:24:01;7.93;;;4.60;;
6828;SDS011;17930;48.592;8.868;2022-11-20T05:26:29;6.97;;;4.82;;
6828;SDS011;17930;48.592;8.868;2022-11-20T05:28:57;8.40;;;4.30;;
6828;SDS011;17930;48.592;8.868;2022-11-20T05:31:24;8.00;;;4.70;;
6828;SDS011;17930;48.592;8.868;2022-11-20T05:33:51;13.77;;;7.25;;
6828;SDS011;17930;48.592;8.868;2022-11-20T05:36:18;9.32;;;5.07;;
6828;SDS011;17930;48.592;8.868;2022-11-20T05:38:45;8.48;;;4.28;;
6828;SDS011;17930;48.592;8.868;2022-11-20T05:41:13;5.57;;;4.25;;
6828;SDS011;17930;48.592;8.868;2022-11-20T05:43:41;6.05;;;4.15;;
6828;SDS011;17930;48.592;8.868;2022-11-20T05:46:11;9.73;;;6.47;;
6828;SDS011;17930;48.592;8.868;2022-11-20T05:48:40;8.32;;;4.13;;
6828;SDS011;17930;48.592;8.868;2022-11-20T05:51:09;6.60;;;3.75;;
6828;SDS011;17930;48.592;8.868;2022-11-20T05:53:37;8.45;;;4.35;;
6828;SDS011;17930;48.592;8.868;2022-11-20T05:56:04;4.88;;;3.83;;
6828;SDS011;17930;48.592;8.868;2022-11-20T05:58:33;8.18;;;3.80;;
6828;SDS011;17930;48.592;8.868;2022-11-20T06:01:04;5.78;;;3.83;;
6828;SDS011;17930;48.592;8.868;2022-11-20T06:03:33;5.55;;;3.40;;
6828;SDS011;17930;48.592;8.868;2022-11-20T06:06:00;6.72;;;3.92;;
6828;SDS011;17930;48.592;8.868;2022-11-20T06:08:28;8.23;;;3.83;;
6828;SDS011;17930;48.592;8.868;2022-11-20T06:10:54;4.93;;;3.67;;
6828;SDS011;17930;48.592;8.868;2022-11-20T06:13:21;10.00;;;4.28;;
6828;SDS011;17930;48.592;8.868;2022-11-20T06:15:48;5.00;;;3.70;;
6828;SDS011;17930;48.592;8.868;2022-11-20T06:18:16;8.43;;;4.18;;
6828;SDS011;17930;48.592;8.868;2022-11-20T06:20:44;6.10;;;3.63;;
6828;SDS011;17930;48.592;8.868;2022-11-20T06:23:11;6.13;;;3.65;;
6828;SDS011;17930;48.592;8.868;2022-11-20T06:25:37;6.85;;;3.67;;
6828;SDS011;17930;48.592;8.868;2022-11-20T06:28:05;8.07;;;3.92;;
6828;SDS011;17930;48.592;8.868;2022-11-20T06:30:31;9.80;;;4.85;;
6828;SDS011;17930;48.592;8.868;2022-11-20T06:32:58;7.45;;;4.75;;
6828;SDS011;17930;48.592;8.868;2022-11-20T06:35:25;8.18;;;4.68;;
6828;SDS011;17930;48.592;8.868;2022-11-20T06:37:53;8.50;;;4.65;;
6828;SDS011;17930;48.592;8.868;2022-11-20T06:40:19;6.57;;;3.88;;
6828;SDS011;17930;48.592;8.868;2022-11-20T06:42:46;4.65;;;3.53;;
6828;SDS011;17930;48.592;8.868;2022-11-20T06:45:13;6.57;;;3.65;;
6828;SDS011;17930;48.592;8.868;2022-11-20T06:47:39;5.13;;;3.70;;
6828;SDS011;17930;48.592;8.868;2022-11-20T06:50:06;6.57;;;3.83;;
6828;SDS011;17930;48.592;8.868;2022-11-20T06:52:33;6.15;;;3.30;;
6828;SDS011;17930;48.592;8.868;2022-11-20T06:55:02;9.65;;;4.97;;
6828;SDS011;17930;48.592;8.868;2022-11-20T06:57:29;10.82;;;4.10;;
6828;SDS011;17930;48.592;8.868;2022-11-20T06:59:55;4.95;;;3.25;;
6828;SDS011;17930;48.592;8.868;2022-11-20T07:02:22;5.13;;;3.25;;
6828;SDS011;17930;48.592;8.868;2022-11-20T07:04:49;5.53;;;2.90;;
6828;SDS011;17930;48.592;8.868;2022-11-20T07:07:15;5.53;;;3.55;;
6828;SDS011;17930;48.592;8.868;2022-11-20T07:09:42;5.05;;;3.30;;
6828;SDS011;17930;48.592;8.868;2022-11-20T07:12:10;5.60;;;3.53;;
6828;SDS011;17930;48.592;8.868;2022-11-20T07:14:37;5.82;;;3.40;;
6828;SDS011;17930;48.592;8.868;2022-11-20T07:17:03;4.38;;;3.10;;
6828;SDS011;17930;48.592;8.868;2022-11-20T07:19:30;5.75;;;3.20;;
6828;SDS011;17930;48.592;8.868;2022-11-20T07:21:57;4.45;;;3.45;;
6828;SDS011;17930;48.592;8.868;2022-11-20T07:24:23;4.32;;;3.00;;
6828;SDS011;17930;48.592;8.868;2022-11-20T07:26:50;6.03;;;3.20;;
6828;SDS011;17930;48.592;8.868;2022-11-20T07:29:18;4.38;;;3.05;;
6828;SDS011;17930;48.592;8.868;2022-11-20T07:31:45;5.28;;;3.00;;
6828;SDS011;17930;48.592;8.868;2022-11-20T07:34:12;6.07;;;3.20;;
6828;SDS011;17930;48.592;8.868;2022-11-20T07:36:39;5.22;;;3.22;;
6828;SDS011;17930;48.592;8.868;2022-11-20T07:39:05;4.57;;;2.78;;
6828;SDS011;17930;48.592;8.868;2022-11-20T07:41:32;4.07;;;2.75;;
6828;SDS011;17930;48.592;8.868;2022-11-20T07:43:59;4.80;;;2.38;;
6828;SDS011;17930;48.592;8.868;2022-11-20T07:46:27;5.00;;;3.00;;
6828;SDS011;17930;48.592;8.868;2022-11-20T07:48:54;4.40;;;2.78;;
6828;SDS011;17930;48.592;8.868;2022-11-20T07:51:20;4.05;;;2.55;;
6828;SDS011;17930;48.592;8.868;2022-11-20T07:53:47;2.63;;;2.20;;
6828;SDS011;17930;48.592;8.868;2022-11-20T07:56:16;4.97;;;2.95;;
6828;SDS011;17930;48.592;8.868;2022-11-20T07:58:43;4.15;;;2.70;;
6828;SDS011;17930;48.592;8.868;2022-11-20T08:01:10;5.43;;;4.05;;
6828;SDS011;17930;48.592;8.868;2022-11-20T08:03:38;5.30;;;3.60;;
6828;SDS011;17930;48.592;8.868;2022-11-20T08:06:05;5.97;;;3.03;;
6828;SDS011;17930;48.592;8.868;2022-11-20T08:08:32;6.80;;;3.90;;
6828;SDS011;17930;48.592;8.868;2022-11-20T08:10:59;5.50;;;3.60;;
6828;SDS011;17930;48.592;8.868;2022-11-20T08:13:39;11.57;;;5.65;;
6828;SDS011;17930;48.592;8.868;2022-11-20T08:16:24;9.10;;;5.32;;
6828;SDS011;17930;48.592;8.868;2022-11-20T08:18:52;8.63;;;4.57;;
6828;SDS011;17930;48.592;8.868;2022-11-20T08:21:18;7.33;;;4.73;;
6828;SDS011;17930;48.592;8.868;2022-11-20T08:23:45;7.28;;;4.20;;
6828;SDS011;17930;48.592;8.868;2022-11-20T08:26:12;8.37;;;5.53;;
6828;SDS011;17930;48.592;8.868;2022-11-20T08:28:38;6.72;;;4.20;;
6828;SDS011;17930;48.592;8.868;2022-11-20T08:31:05;5.50;;;3.30;;
6828;SDS011;17930;48.592;8.868;2022-11-20T08:33:32;4.13;;;2.97;;
6828;SDS011;17930;48.592;8.868;2022-11-20T08:36:00;3.97;;;2.97;;
6828;SDS011;17930;48.592;8.868;2022-11-20T08:38:28;11.83;;;7.17;;
6828;SDS011;17930;48.592;8.868;2022-11-20T08:40:56;2.27;;;1.60;;
6828;SDS011;17930;48.592;8.868;2022-11-20T08:43:41;3.90;;;2.97;;
6828;SDS011;17930;48.592;8.868;2022-11-20T08:46:07;2.00;;;1.80;;
6828;SDS011;17930;48.592;8.868;2022-11-20T08:48:34;5.13;;;3.70;;
6828;SDS011;17930;48.592;8.868;2022-11-20T08:51:03;3.50;;;2.30;;
6828;SDS011;17930;48.592;8.868;2022-11-20T08:53:29;3.83;;;2.13;;
6828;SDS011;17930;48.592;8.868;2022-11-20T08:55:56;2.40;;;1.83;;
6828;SDS011;17930;48.592;8.868;2022-11-20T08:58:23;2.17;;;1.50;;
6828;SDS011;17930;48.592;8.868;2022-11-20T09:00:50;2.93;;;1.43;;
6828;SDS011;17930;48.592;8.868;2022-11-20T09:03:17;5.53;;;1.83;;
6828;SDS011;17930;48.592;8.868;2022-11-20T09:05:44;2.37;;;1.40;;
6828;SDS011;17930;48.592;8.868;2022-11-20T09:08:12;2.23;;;1.90;;
6828;SDS011;17930;48.592;8.868;2022-11-20T09:10:39;3.07;;;1.73;;
6828;SDS011;17930;48.592;8.868;2022-11-20T09:13:06;1.80;;;1.50;;
6828;SDS011;17930;48.592;8.868;2022-11-20T09:15:33;1.63;;;1.52;;
6828;SDS011;17930;48.592;8.868;2022-11-20T09:18:00;1.83;;;1.40;;
6828;SDS011;17930;48.592;8.868;2022-11-20T09:20:29;2.43;;;0.77;;
6828;SDS011;17930;48.592;8.868;2022-11-20T09:22:56;2.13;;;1.33;;
6828;SDS011;17930;48.592;8.868;2022-11-20T09:25:24;2.27;;;1.13;;
6828;SDS011;17930;48.592;8.868;2022-11-20T09:27:54;1.87;;;1.20;;
6828;SDS011;17930;48.592;8.868;2022-11-20T09:30:21;3.30;;;2.33;;
6828;SDS011;17930;48.592;8.868;2022-11-20T09:32:48;2.50;;;1.87;;
6828;SDS011;17930;48.592;8.868;2022-11-20T09:35:15;1.63;;;1.53;;
6828;SDS011;17930;48.592;8.868;2022-11-20T09:37:43;5.83;;;3.03;;
6828;SDS011;17930;48.592;8.868;2022-11-20T09:40:10;2.73;;;1.60;;
6828;SDS011;17930;48.592;8.868;2022-11-20T09:42:47;2.90;;;1.20;;
6828;SDS011;17930;48.592;8.868;2022-11-20T09:45:20;1.40;;;1.13;;
6828;SDS011;17930;48.592;8.868;2022-11-20T09:47:53;2.13;;;1.40;;
6828;SDS011;17930;48.592;8.868;2022-11-20T09:50:31;2.17;;;1.60;;
6828;SDS011;17930;48.592;8.868;2022-11-20T09:53:11;2.50;;;1.23;;
6828;SDS011;17930;48.592;8.868;2022-11-20T09:55:42;3.60;;;1.80;;
6828;SDS011;17930;48.592;8.868;2022-11-20T09:58:14;3.47;;;1.50;;
6828;SDS011;17930;48.592;8.868;2022-11-20T10:00:47;1.97;;;1.57;;
6828;SDS011;17930;48.592;8.868;2022-11-20T10:03:16;5.43;;;2.23;;
6828;SDS011;17930;48.592;8.868;2022-11-20T10:05:48;1.30;;;1.10;;
6828;SDS011;17930;48.592;8.868;2022-11-20T10:08:21;2.00;;;1.13;;
6828;SDS011;17930;48.592;8.868;2022-11-20T10:10:52;1.53;;;1.20;;
6828;SDS011;17930;48.592;8.868;2022-11-20T10:13:32;1.63;;;1.20;;
6828;SDS011;17930;48.592;8.868;2022-11-20T10:16:12;8.47;;;4.10;;
6828;SDS011;17930;48.592;8.868;2022-11-20T10:18:51;4.23;;;2.80;;
6828;SDS011;17930;48.592;8.868;2022-11-20T10:21:29;2.33;;;1.70;;
6828;SDS011;17930;48.592;8.868;2022-11-20T10:24:17;2.93;;;1.57;;
6828;SDS011;17930;48.592;8.868;2022-11-20T10:26:58;1.33;;;1.20;;
6828;SDS011;17930;48.592;8.868;2022-11-20T10:29:38;1.00;;;0.90;;
6828;SDS011;17930;48.592;8.868;2022-11-20T10:32:10;1.87;;;1.30;;
6828;SDS011;17930;48.592;8.868;2022-11-20T10:34:43;1.20;;;0.90;;
6828;SDS011;17930;48.592;8.868;2022-11-20T10:37:16;2.73;;;1.67;;
6828;SDS011;17930;48.592;8.868;2022-11-20T10:39:50;1.70;;;1.10;;
6828;SDS011;17930;48.592;8.868;2022-11-20T10:42:24;3.30;;;1.70;;
6828;SDS011;17930;48.592;8.868;2022-11-20T10:45:02;4.20;;;1.13;;
6828;SDS011;17930;48.592;8.868;2022-11-20T10:47:46;2.57;;;1.30;;
6828;SDS011;17930;48.592;8.868;2022-11-20T10:50:14;1.50;;;0.87;;
6828;SDS011;17930;48.592;8.868;2022-11-20T10:52:47;1.73;;;0.93;;
6828;SDS011;17930;48.592;8.868;2022-11-20T10:55:25;1.93;;;1.20;;
6828;SDS011;17930;48.592;8.868;2022-11-20T10:58:00;2.07;;;1.50;;
6828;SDS011;17930;48.592;8.868;2022-11-20T11:00:35;2.33;;;1.60;;
6828;SDS011;17930;48.592;8.868;2022-11-20T11:03:02;3.90;;;2.00;;
6828;SDS011;17930;48.592;8.868;2022-11-20T11:05:33;2.00;;;1.43;;
6828;SDS011;17930;48.592;8.868;2022-11-20T11:08:05;2.00;;;1.33;;
6828;SDS011;17930;48.592;8.868;2022-11-20T11:10:40;2.13;;;1.30;;
6828;SDS011;17930;48.592;8.868;2022-11-20T11:13:19;5.43;;;1.70;;
6828;SDS011;17930;48.592;8.868;2022-11-20T11:15:48;1.87;;;1.00;;
6828;SDS011;17930;48.592;8.868;2022-11-20T11:18:23;2.63;;;1.43;;
6828;SDS011;17930;48.592;8.868;2022-11-20T11:20:51;2.07;;;1.03;;
6828;SDS011;17930;48.592;8.868;2022-11-20T11:23:26;3.13;;;1.50;;
6828;SDS011;17930;48.592;8.868;2022-11-20T11:25:57;3.43;;;2.00;;
6828;SDS011;17930;48.592;8.868;2022-11-20T11:28:25;9.30;;;4.00;;
6828;SDS011;17930;48.592;8.868;2022-11-20T11:30:54;0.93;;;0.80;;
6828;SDS011;17930;48.592;8.868;2022-11-20T11:33:22;3.93;;;2.50;;
6828;SDS011;17930;48.592;8.868;2022-11-20T11:35:51;2.30;;;1.13;;
6828;SDS011;17930;48.592;8.868;2022-11-20T11:38:23;3.77;;;1.80;;
6828;SDS011;17930;48.592;8.868;2022-11-20T11:40:56;3.43;;;1.47;;
6828;SDS011;17930;48.592;8.868;2022-11-20T11:43:24;5.33;;;2.43;;
6828;SDS011;17930;48.592;8.868;2022-11-20T11:46:23;1.30;;;0.70;;
6828;SDS011;17930;48.592;8.868;2022-11-20T11:48:54;1.13;;;1.00;;
6828;SDS011;17930;48.592;8.868;2022-11-20T11:51:23;2.63;;;1.30;;
6828;SDS011;17930;48.592;8.868;2022-11-20T11:53:54;1.90;;;1.10;;
6828;SDS011;17930;48.592;8.868;2022-11-20T11:56:24;2.23;;;0.97;;
6828;SDS011;17930;48.592;8.868;2022-11-20T11:59:00;4.23;;;1.10;;
6828;SDS011;17930;48.592;8.868;2022-11-20T12:01:36;2.07;;;1.13;;
6828;SDS011;17930;48.592;8.868;2022-11-20T12:04:11;2.60;;;1.10;;
6828;SDS011;17930;48.592;8.868;2022-11-20T12:06:44;3.07;;;1.33;;
6828;SDS011;17930;48.592;8.868;2022-11-20T12:09:16;2.00;;;1.00;;
6828;SDS011;17930;48.592;8.868;2022-11-20T12:11:46;2.30;;;1.03;;
6828;SDS011;17930;48.592;8.868;2022-11-20T12:14:20;1.40;;;0.70;;
6828;SDS011;17930;48.592;8.868;2022-11-20T12:16:55;2.20;;;0.80;;
6828;SDS011;17930;48.592;8.868;2022-11-20T12:19:22;1.90;;;0.90;;
6828;SDS011;17930;48.592;8.868;2022-11-20T12:21:53;1.87;;;1.07;;
6828;SDS011;17930;48.592;8.868;2022-11-20T12:24:33;1.47;;;1.00;;
6828;SDS011;17930;48.592;8.868;2022-11-20T12:27:19;3.30;;;1.07;;
6828;SDS011;17930;48.592;8.868;2022-11-20T12:30:01;0.83;;;0.73;;
6828;SDS011;17930;48.592;8.868;2022-11-20T12:32:44;0.70;;;0.70;;
6828;SDS011;17930;48.592;8.868;2022-11-20T12:35:32;1.03;;;0.67;;
6828;SDS011;17930;48.592;8.868;2022-11-20T12:38:13;1.43;;;1.00;;
6828;SDS011;17930;48.592;8.868;2022-11-20T12:41:03;1.63;;;0.63;;
6828;SDS011;17930;48.592;8.868;2022-11-20T12:43:39;1.00;;;0.80;;
6828;SDS011;17930;48.592;8.868;2022-11-20T12:46:29;1.97;;;0.80;;
6828;SDS011;17930;48.592;8.868;2022-11-20T12:49:07;1.77;;;0.90;;
6828;SDS011;17930;48.592;8.868;2022-11-20T12:51:51;3.17;;;0.90;;
6828;SDS011;17930;48.592;8.868;2022-11-20T12:54:31;0.77;;;0.77;;
6828;SDS011;17930;48.592;8.868;2022-11-20T12:57:09;1.07;;;0.60;;
6828;SDS011;17930;48.592;8.868;2022-11-20T12:59:51;0.67;;;0.63;;
6828;SDS011;17930;48.592;8.868;2022-11-20T13:02:38;1.50;;;0.73;;
6828;SDS011;17930;48.592;8.868;2022-11-20T13:05:37;0.93;;;0.80;;
6828;SDS011;17930;48.592;8.868;2022-11-20T13:08:18;2.13;;;0.70;;
6828;SDS011;17930;48.592;8.868;2022-11-20T13:10:49;0.40;;;0.40;;
6828;SDS011;17930;48.592;8.868;2022-11-20T13:13:23;2.63;;;0.77;;
6828;SDS011;17930;48.592;8.868;2022-11-20T13:15:58;1.07;;;0.90;;
6828;SDS011;17930;48.592;8.868;2022-11-20T13:18:33;1.53;;;0.70;;
6828;SDS011;17930;48.592;8.868;2022-11-20T13:21:13;1.57;;;0.50;;
6828;SDS011;17930;48.592;8.868;2022-11-20T13:23:42;2.83;;;0.67;;
6828;SDS011;17930;48.592;8.868;2022-11-20T13:26:15;2.70;;;0.73;;
6828;SDS011;17930;48.592;8.868;2022-11-20T13:28:44;2.33;;;1.10;;
6828;SDS011;17930;48.592;8.868;2022-11-20T13:31:23;3.47;;;1.40;;
6828;SDS011;17930;48.592;8.868;2022-11-20T13:33:55;7.57;;;2.97;;
6828;SDS011;17930;48.592;8.868;2022-11-20T13:36:25;4.07;;;1.60;;
6828;SDS011;17930;48.592;8.868;2022-11-20T13:38:54;7.17;;;3.30;;
6828;SDS011;17930;48.592;8.868;2022-11-20T13:41:23;2.70;;;1.60;;
6828;SDS011;17930;48.592;8.868;2022-11-20T13:43:59;5.50;;;2.60;;
6828;SDS011;17930;48.592;8.868;2022-11-20T13:46:36;5.97;;;2.40;;
6828;SDS011;17930;48.592;8.868;2022-11-20T13:49:10;3.47;;;1.90;;
6828;SDS011;17930;48.592;8.868;2022-11-20T13:51:45;7.83;;;4.00;;
6828;SDS011;17930;48.592;8.868;2022-11-20T14:00:23;3.03;;;1.40;;
6828;SDS011;17930;48.592;8.868;2022-11-20T14:02:58;1.77;;;0.97;;
6828;SDS011;17930;48.592;8.868;2022-11-20T14:05:34;2.33;;;1.20;;
6828;SDS011;17930;48.592;8.868;2022-11-20T14:08:04;1.80;;;0.77;;
6828;SDS011;17930;48.592;8.868;2022-11-20T14:10:37;2.00;;;0.87;;
6828;SDS011;17930;48.592;8.868;2022-11-20T14:13:09;2.17;;;1.10;;
6828;SDS011;17930;48.592;8.868;2022-11-20T14:15:41;1.00;;;0.70;;
6828;SDS011;17930;48.592;8.868;2022-11-20T14:18:12;1.40;;;0.90;;
6828;SDS011;17930;48.592;8.868;2022-11-20T14:20:40;1.40;;;0.90;;
6828;SDS011;17930;48.592;8.868;2022-11-20T14:23:10;0.60;;;0.60;;
6828;SDS011;17930;48.592;8.868;2022-11-20T14:25:37;1.80;;;1.17;;
6828;SDS011;17930;48.592;8.868;2022-11-20T14:28:10;1.53;;;0.80;;
6828;SDS011;17930;48.592;8.868;2022-11-20T14:30:47;1.07;;;0.60;;
6828;SDS011;17930;48.592;8.868;2022-11-20T14:33:15;2.87;;;1.00;;
6828;SDS011;17930;48.592;8.868;2022-11-20T14:35:44;2.43;;;1.10;;
6828;SDS011;17930;48.592;8.868;2022-11-20T14:38:14;0.90;;;0.80;;
6828;SDS011;17930;48.592;8.868;2022-11-20T14:40:44;1.67;;;1.17;;
6828;SDS011;17930;48.592;8.868;2022-11-20T14:43:18;2.00;;;0.80;;
6828;SDS011;17930;48.592;8.868;2022-11-20T14:45:49;2.10;;;1.27;;
6828;SDS011;17930;48.592;8.868;2022-11-20T14:48:22;2.97;;;1.20;;
6828;SDS011;17930;48.592;8.868;2022-11-20T14:50:54;2.07;;;1.07;;
6828;SDS011;17930;48.592;8.868;2022-11-20T14:53:23;1.40;;;0.90;;
6828;SDS011;17930;48.592;8.868;2022-11-20T14:55:54;2.33;;;1.47;;
6828;SDS011;17930;48.592;8.868;2022-11-20T14:58:23;2.47;;;1.80;;
6828;SDS011;17930;48.592;8.868;2022-11-20T15:00:53;1.63;;;1.27;;
6828;SDS011;17930;48.592;8.868;2022-11-20T15:03:21;1.97;;;1.00;;
6828;SDS011;17930;48.592;8.868;2022-11-20T15:05:49;4.43;;;2.37;;
6828;SDS011;17930;48.592;8.868;2022-11-20T15:08:16;12.50;;;5.13;;
6828;SDS011;17930;48.592;8.868;2022-11-20T15:10:48;4.47;;;2.80;;
6828;SDS011;17930;48.592;8.868;2022-11-20T15:13:17;7.43;;;4.33;;
6828;SDS011;17930;48.592;8.868;2022-11-20T15:15:51;5.37;;;2.27;;
6828;SDS011;17930;48.592;8.868;2022-11-20T15:18:21;5.40;;;2.53;;
6828;SDS011;17930;48.592;8.868;2022-11-20T15:20:50;2.30;;;2.03;;
6828;SDS011;17930;48.592;8.868;2022-11-20T15:23:17;4.83;;;3.27;;
6828;SDS011;17930;48.592;8.868;2022-11-20T15:25:45;4.87;;;2.47;;
6828;SDS011;17930;48.592;8.868;2022-11-20T15:28:15;4.90;;;2.20;;